ESGR/KVB METAR and TAF weather

Enter ICAO airport designator
Station Type Date Time Source
ESGR METAR 2018/09/21 22:50 UTC NOAA

ESGR 212250Z AUTO 20021G32KT 9999 SCT027/// BKN036/// 11/06 Q0988


Station Type Date Time Source
ESGR Decoded METAR 2018/09/21 22:50 UTC NOAA

Skovde Flygplats, Sweden (ESGR) 58-27N 013-58E 105M
Sep 21, 2018 - 06:50 PM EDT / 2018.09.21 2250 UTC
Wind: from the SSW (200 degrees) at 24 MPH (21 KT) gusting to 37 MPH (32 KT):0
Visibility: greater than 7 mile(s):0
Sky conditions: mostly cloudy
Temperature: 51 F (11 C)
Dew Point: 42 F (6 C)
Relative Humidity: 71%
Pressure (altimeter): 29.18 in. Hg (0988 hPa)
ob: ESGR 212250Z AUTO 20021G32KT 9999 SCT027/// BKN036/// 11/06 Q0988
cycle: 23

Station Type Date Time Source
ESGR TAF 2009/06/28 04:50 UTC NOAA

METAR ESGR 280450Z AUTO VRB02KT 9999NDV NCD 17/12 Q1020


Example: see airport list